Home   Weather   United Kingdom   Milton Keynes   Past weeks
Flag for United Kingdom

Past Weather in Milton Keynes, England, United Kingdom — Yesterday and Last 2 Weeks

Currently: 61 °F. Cool. (Weather station: Luton Airport, United Kingdom). See more current weather

Past Weather in Milton Keynes — Graph

°F

Milton Keynes Temperature Yesterday

Maximum temperature yesterday: 81 °F (at 3:50 pm)
Minimum temperature yesterday: 54 °F (at 4:20 am)
Average temperature yesterday: 68 °F

High & Low Weather Summary for the Past Weeks

 TemperatureHumidityPressure
High81 °F (Jun 13, 3:50 pm)100% (May 30, 5:50 am)30.39 "Hg (May 30, 5:50 am)
Low43 °F (May 30, 5:50 am)33% (Jun 1, 5:20 pm)29.92 "Hg (Jun 2, 2:50 am)
Average63 °F72%30.17 "Hg
* Reported May 30 5:20 am — Jun 14 5:50 am, Milton Keynes. Weather by CustomWeather, © 2021

Note: Actual official high and low records may vary slightly from our data, if they occured in-between our weather recording intervals... More about our weather records

Milton Keynes Weather History for the Previous 24 Hours

Scroll right to see more
 ConditionsComfort  
Time TempWeatherWind HumidityBarometerVisibility
5:50 am
Mon, Jun 14
61 °FCool.5 mph77%30.15 "HgN/A
5:20 am59 °FCool.7 mph82%30.15 "HgN/A
4:50 am57 °FCool.7 mph82%30.15 "HgN/A
4:20 am59 °FCool.6 mph77%30.15 "HgN/A
3:50 am59 °FCool.7 mph77%30.18 "HgN/A
3:20 am59 °FCool.5 mph82%30.18 "HgN/A
2:50 am59 °FCool.5 mph82%30.18 "HgN/A
2:20 am61 °FCool.8 mph77%30.18 "HgN/A
1:50 am61 °FCool.7 mph77%30.21 "HgN/A
1:20 am63 °FMild.6 mph77%30.21 "HgN/A
12:50 am63 °FMild.7 mph73%30.21 "HgN/A
12:20 am64 °FMild.8 mph68%30.21 "HgN/A
11:50 pm
Sun, Jun 13
64 °FMild.7 mph73%30.21 "HgN/A
11:20 pm66 °FMild.7 mph68%30.21 "HgN/A
10:50 pm66 °FMild.8 mph73%30.21 "HgN/A
10:20 pm66 °FMild.6 mph78%30.21 "HgN/A
9:50 pm70 °FPassing clouds.7 mph69%30.21 "HgN/A
9:20 pm73 °FPassing clouds.6 mph61%30.21 "HgN/A
8:50 pm73 °FPartly sunny.3 mph61%30.21 "HgN/A
8:20 pm77 °FScattered clouds.3 mph54%30.21 "HgN/A
7:50 pm81 °FWarm.3 mph48%30.24 "HgN/A
7:20 pm81 °FWarm.3 mph45%30.24 "HgN/A
6:50 pm81 °FWarm.3 mph45%30.24 "HgN/A
6:20 pm79 °FWarm.5 mph48%30.24 "HgN/A
5:50 pm79 °FWarm.3 mph48%30.24 "HgN/A
5:20 pm79 °FWarm.2 mph48%30.27 "HgN/A
4:50 pm79 °FWarm.6 mph48%30.27 "HgN/A
4:20 pm81 °FWarm.6 mph45%30.27 "HgN/A
3:50 pm81 °FWarm.6 mph45%30.27 "HgN/A
3:20 pm79 °FWarm.6 mph48%30.30 "HgN/A
2:50 pm79 °FWarm.6 mph48%30.30 "HgN/A
2:20 pm77 °FWarm.5 mph51%30.30 "HgN/A
1:50 pm77 °FWarm.3 mph47%30.30 "HgN/A
1:20 pm77 °FWarm.3 mph47%30.33 "HgN/A
12:50 pm75 °FMild.3 mph50%30.33 "HgN/A
12:20 pm73 °FMild.3 mph53%30.33 "HgN/A
11:50 am72 °FMild.6 mph57%30.36 "HgN/A
11:20 am72 °FMild.7 mph57%30.36 "HgN/A
10:50 am72 °FMild.7 mph53%30.36 "HgN/A
10:20 am70 °FMild.8 mph57%30.36 "HgN/A
9:50 am70 °FMild.3 mph53%30.36 "HgN/A
9:20 am68 °FMild.3 mph53%30.36 "HgN/A
8:50 am66 °FMild.2 mph52%30.36 "HgN/A
8:20 am64 °FMild.2 mph56%30.36 "HgN/A
7:50 am61 °FCool.3 mph63%30.36 "HgN/A
7:20 am61 °FCool.5 mph63%30.36 "HgN/A
Weather by CustomWeather, © 2021

See weather overview